Enning, South Dakota
Current Conditions -  °F | °C
As of 4:58 AM on Sunday 21 Dec 2014 (Local Time) from KRCA Reporting Station
Clear Clear  
Wind Chill: 18°   Ceiling: Unl
Heat Index: 27°   Visibility: 10mi
Dew Point: 20°   Wind: 8mph
Humidity: 77%   Direction: 250°WSW
Pressure: 29.57"   Gusts: NA
Location:  44.57°N, 102.56°W
Report Text: KRCA 211158Z AUTO 25007KT 10SM CLR M03/M06 A2957 RMK AO2 SLP040 T10291064 10011 21047 57033 $
Loading
Personal Weather Stations






























Interactive Weather Map New forecast layout! Learn more

10-Day Weather Forecast

Advertisements
Track Severe Weather on mobile